sensor_id;sensor_type;location;lat;lon;timestamp;P1;durP1;ratioP1;P2;durP2;ratioP2
51366;SDS011;37458;49.428;8.646;2022-08-04T00:02:16;2.10;;;1.95;;
51366;SDS011;37458;49.428;8.646;2022-08-04T00:04:44;2.20;;;2.00;;
51366;SDS011;37458;49.428;8.646;2022-08-04T00:12:04;2.60;;;2.40;;
51366;SDS011;37458;49.428;8.646;2022-08-04T00:14:35;2.30;;;2.10;;
51366;SDS011;37458;49.428;8.646;2022-08-04T00:17:05;2.25;;;2.03;;
51366;SDS011;37458;49.428;8.646;2022-08-04T00:19:32;2.30;;;2.10;;
51366;SDS011;37458;49.428;8.646;2022-08-04T00:22:03;2.65;;;2.35;;
51366;SDS011;37458;49.428;8.646;2022-08-04T00:24:30;4.00;;;2.50;;
51366;SDS011;37458;49.428;8.646;2022-08-04T00:26:56;2.23;;;2.10;;
51366;SDS011;37458;49.428;8.646;2022-08-04T00:29:22;2.77;;;2.03;;
51366;SDS011;37458;49.428;8.646;2022-08-04T00:31:48;4.60;;;2.10;;
51366;SDS011;37458;49.428;8.646;2022-08-04T00:34:15;2.60;;;2.40;;
51366;SDS011;37458;49.428;8.646;2022-08-04T00:36:44;2.77;;;2.30;;
51366;SDS011;37458;49.428;8.646;2022-08-04T00:39:10;2.40;;;2.20;;
51366;SDS011;37458;49.428;8.646;2022-08-04T00:44:12;2.40;;;2.20;;
51366;SDS011;37458;49.428;8.646;2022-08-04T00:47:02;2.30;;;2.10;;
51366;SDS011;37458;49.428;8.646;2022-08-04T00:49:53;2.40;;;2.20;;
51366;SDS011;37458;49.428;8.646;2022-08-04T01:00:27;2.70;;;2.50;;
51366;SDS011;37458;49.428;8.646;2022-08-04T01:03:08;3.83;;;2.50;;
51366;SDS011;37458;49.428;8.646;2022-08-04T01:05:45;3.40;;;2.50;;
51366;SDS011;37458;49.428;8.646;2022-08-04T01:08:29;2.73;;;2.40;;
51366;SDS011;37458;49.428;8.646;2022-08-04T01:11:02;2.97;;;2.40;;
51366;SDS011;37458;49.428;8.646;2022-08-04T01:13:51;2.73;;;2.20;;
51366;SDS011;37458;49.428;8.646;2022-08-04T01:16:19;5.07;;;2.50;;
51366;SDS011;37458;49.428;8.646;2022-08-04T01:19:05;3.67;;;1.90;;
51366;SDS011;37458;49.428;8.646;2022-08-04T01:29:12;2.90;;;2.60;;
51366;SDS011;37458;49.428;8.646;2022-08-04T01:34:21;2.40;;;2.20;;
51366;SDS011;37458;49.428;8.646;2022-08-04T01:37:07;3.70;;;2.20;;
51366;SDS011;37458;49.428;8.646;2022-08-04T01:39:59;2.30;;;2.10;;
51366;SDS011;37458;49.428;8.646;2022-08-04T01:42:22;2.53;;;2.07;;
51366;SDS011;37458;49.428;8.646;2022-08-04T01:44:50;6.80;;;2.00;;
51366;SDS011;37458;49.428;8.646;2022-08-04T01:47:19;3.60;;;1.90;;
51366;SDS011;37458;49.428;8.646;2022-08-04T01:49:46;8.67;;;2.00;;
51366;SDS011;37458;49.428;8.646;2022-08-04T01:52:13;2.53;;;2.00;;
51366;SDS011;37458;49.428;8.646;2022-08-04T01:54:41;2.93;;;2.00;;
51366;SDS011;37458;49.428;8.646;2022-08-04T01:57:08;2.00;;;1.90;;
51366;SDS011;37458;49.428;8.646;2022-08-04T01:59:35;4.50;;;2.13;;
51366;SDS011;37458;49.428;8.646;2022-08-04T02:02:02;3.20;;;2.10;;
51366;SDS011;37458;49.428;8.646;2022-08-04T02:04:29;2.23;;;2.13;;
51366;SDS011;37458;49.428;8.646;2022-08-04T02:09:57;3.93;;;2.40;;
51366;SDS011;37458;49.428;8.646;2022-08-04T02:14:55;3.87;;;2.30;;
51366;SDS011;37458;49.428;8.646;2022-08-04T02:17:28;2.70;;;2.50;;
51366;SDS011;37458;49.428;8.646;2022-08-04T02:19:58;2.50;;;2.30;;
51366;SDS011;37458;49.428;8.646;2022-08-04T02:22:26;3.83;;;2.20;;
51366;SDS011;37458;49.428;8.646;2022-08-04T02:25:27;3.90;;;2.57;;
51366;SDS011;37458;49.428;8.646;2022-08-04T02:27:53;4.20;;;2.60;;
51366;SDS011;37458;49.428;8.646;2022-08-04T02:30:20;3.07;;;2.80;;
51366;SDS011;37458;49.428;8.646;2022-08-04T02:32:48;2.60;;;2.40;;
51366;SDS011;37458;49.428;8.646;2022-08-04T02:35:15;3.20;;;2.53;;
51366;SDS011;37458;49.428;8.646;2022-08-04T02:37:46;3.93;;;2.50;;
51366;SDS011;37458;49.428;8.646;2022-08-04T02:40:12;2.90;;;2.30;;
51366;SDS011;37458;49.428;8.646;2022-08-04T02:42:41;4.37;;;2.23;;
51366;SDS011;37458;49.428;8.646;2022-08-04T02:45:07;2.40;;;2.20;;
51366;SDS011;37458;49.428;8.646;2022-08-04T02:47:34;2.27;;;2.07;;
51366;SDS011;37458;49.428;8.646;2022-08-04T02:50:00;1.93;;;1.83;;
51366;SDS011;37458;49.428;8.646;2022-08-04T02:52:27;4.83;;;1.90;;
51366;SDS011;37458;49.428;8.646;2022-08-04T02:54:56;5.93;;;1.93;;
51366;SDS011;37458;49.428;8.646;2022-08-04T02:57:26;2.53;;;1.90;;
51366;SDS011;37458;49.428;8.646;2022-08-04T03:02:19;2.10;;;1.80;;
51366;SDS011;37458;49.428;8.646;2022-08-04T03:04:50;1.80;;;1.70;;
51366;SDS011;37458;49.428;8.646;2022-08-04T03:28:50;2.17;;;1.77;;
51366;SDS011;37458;49.428;8.646;2022-08-04T03:58:13;4.30;;;2.93;;
51366;SDS011;37458;49.428;8.646;2022-08-04T04:00:46;3.63;;;2.67;;
51366;SDS011;37458;49.428;8.646;2022-08-04T04:08:31;7.03;;;3.10;;
51366;SDS011;37458;49.428;8.646;2022-08-04T04:26:44;4.23;;;3.10;;
51366;SDS011;37458;49.428;8.646;2022-08-04T04:42:15;3.87;;;3.47;;
51366;SDS011;37458;49.428;8.646;2022-08-04T04:45:00;4.93;;;3.77;;
51366;SDS011;37458;49.428;8.646;2022-08-04T04:47:30;8.23;;;4.20;;
51366;SDS011;37458;49.428;8.646;2022-08-04T04:50:02;4.53;;;3.60;;
51366;SDS011;37458;49.428;8.646;2022-08-04T04:52:46;8.83;;;3.77;;
51366;SDS011;37458;49.428;8.646;2022-08-04T04:55:20;6.70;;;3.83;;
51366;SDS011;37458;49.428;8.646;2022-08-04T04:57:48;8.07;;;3.85;;
51366;SDS011;37458;49.428;8.646;2022-08-04T05:00:15;4.75;;;4.05;;
51366;SDS011;37458;49.428;8.646;2022-08-04T05:05:45;7.80;;;4.85;;
51366;SDS011;37458;49.428;8.646;2022-08-04T05:11:01;10.05;;;4.30;;
51366;SDS011;37458;49.428;8.646;2022-08-04T05:13:37;9.38;;;4.53;;
51366;SDS011;37458;49.428;8.646;2022-08-04T05:16:16;8.30;;;4.05;;
51366;SDS011;37458;49.428;8.646;2022-08-04T05:18:45;8.18;;;4.38;;
51366;SDS011;37458;49.428;8.646;2022-08-04T05:21:29;6.30;;;3.90;;
51366;SDS011;37458;49.428;8.646;2022-08-04T05:23:59;10.23;;;4.35;;
51366;SDS011;37458;49.428;8.646;2022-08-04T05:26:29;10.65;;;4.32;;
51366;SDS011;37458;49.428;8.646;2022-08-04T05:28:56;6.03;;;3.80;;
51366;SDS011;37458;49.428;8.646;2022-08-04T05:31:28;12.85;;;4.72;;
51366;SDS011;37458;49.428;8.646;2022-08-04T05:33:56;6.20;;;4.65;;
51366;SDS011;37458;49.428;8.646;2022-08-04T05:36:24;11.48;;;4.65;;
51366;SDS011;37458;49.428;8.646;2022-08-04T05:38:52;10.80;;;4.90;;
51366;SDS011;37458;49.428;8.646;2022-08-04T05:41:18;6.95;;;4.80;;
51366;SDS011;37458;49.428;8.646;2022-08-04T05:43:45;12.85;;;5.13;;
51366;SDS011;37458;49.428;8.646;2022-08-04T05:46:12;9.68;;;5.47;;
51366;SDS011;37458;49.428;8.646;2022-08-04T05:48:38;13.55;;;5.28;;
51366;SDS011;37458;49.428;8.646;2022-08-04T05:51:05;8.98;;;5.03;;
51366;SDS011;37458;49.428;8.646;2022-08-04T05:53:34;9.45;;;5.28;;
51366;SDS011;37458;49.428;8.646;2022-08-04T05:56:00;8.63;;;5.20;;
51366;SDS011;37458;49.428;8.646;2022-08-04T05:58:30;7.85;;;5.60;;
51366;SDS011;37458;49.428;8.646;2022-08-04T06:00:59;11.63;;;5.93;;
51366;SDS011;37458;49.428;8.646;2022-08-04T06:03:26;7.70;;;5.38;;
51366;SDS011;37458;49.428;8.646;2022-08-04T06:05:53;8.85;;;5.18;;
51366;SDS011;37458;49.428;8.646;2022-08-04T06:08:21;8.13;;;5.60;;
51366;SDS011;37458;49.428;8.646;2022-08-04T06:10:48;10.10;;;5.82;;
51366;SDS011;37458;49.428;8.646;2022-08-04T06:13:16;6.63;;;5.25;;
51366;SDS011;37458;49.428;8.646;2022-08-04T06:15:43;9.85;;;5.50;;
51366;SDS011;37458;49.428;8.646;2022-08-04T06:18:12;10.60;;;5.32;;
51366;SDS011;37458;49.428;8.646;2022-08-04T06:20:39;10.35;;;5.20;;
51366;SDS011;37458;49.428;8.646;2022-08-04T06:23:07;12.57;;;4.97;;
51366;SDS011;37458;49.428;8.646;2022-08-04T06:25:45;10.80;;;5.78;;
51366;SDS011;37458;49.428;8.646;2022-08-04T06:28:12;9.63;;;5.38;;
51366;SDS011;37458;49.428;8.646;2022-08-04T06:30:38;6.88;;;5.10;;
51366;SDS011;37458;49.428;8.646;2022-08-04T06:33:05;8.73;;;4.68;;
51366;SDS011;37458;49.428;8.646;2022-08-04T06:35:53;7.07;;;3.60;;
51366;SDS011;37458;49.428;8.646;2022-08-04T06:38:23;4.35;;;3.13;;
51366;SDS011;37458;49.428;8.646;2022-08-04T06:40:49;4.20;;;3.30;;
51366;SDS011;37458;49.428;8.646;2022-08-04T06:43:16;5.05;;;3.60;;
51366;SDS011;37458;49.428;8.646;2022-08-04T06:45:43;11.38;;;5.90;;
51366;SDS011;37458;49.428;8.646;2022-08-04T06:48:11;7.32;;;2.90;;
51366;SDS011;37458;49.428;8.646;2022-08-04T06:50:37;3.25;;;2.67;;
51366;SDS011;37458;49.428;8.646;2022-08-04T06:53:04;3.53;;;2.85;;
51366;SDS011;37458;49.428;8.646;2022-08-04T06:55:30;3.22;;;2.95;;
51366;SDS011;37458;49.428;8.646;2022-08-04T06:57:56;3.20;;;2.90;;
51366;SDS011;37458;49.428;8.646;2022-08-04T07:00:23;5.18;;;2.83;;
51366;SDS011;37458;49.428;8.646;2022-08-04T07:02:50;4.47;;;2.80;;
51366;SDS011;37458;49.428;8.646;2022-08-04T07:05:17;6.75;;;2.80;;
51366;SDS011;37458;49.428;8.646;2022-08-04T07:07:44;5.38;;;2.83;;
51366;SDS011;37458;49.428;8.646;2022-08-04T07:10:10;4.80;;;3.08;;
51366;SDS011;37458;49.428;8.646;2022-08-04T07:12:37;3.70;;;3.40;;
51366;SDS011;37458;49.428;8.646;2022-08-04T07:15:04;3.33;;;3.00;;
51366;SDS011;37458;49.428;8.646;2022-08-04T07:17:30;5.80;;;3.20;;
51366;SDS011;37458;49.428;8.646;2022-08-04T07:19:57;6.45;;;3.42;;
51366;SDS011;37458;49.428;8.646;2022-08-04T07:22:26;6.47;;;3.10;;
51366;SDS011;37458;49.428;8.646;2022-08-04T07:24:53;3.65;;;3.20;;
51366;SDS011;37458;49.428;8.646;2022-08-04T07:27:20;3.60;;;3.30;;
51366;SDS011;37458;49.428;8.646;2022-08-04T07:29:46;3.38;;;3.08;;
51366;SDS011;37458;49.428;8.646;2022-08-04T07:32:12;3.60;;;3.30;;
51366;SDS011;37458;49.428;8.646;2022-08-04T07:34:39;6.03;;;3.33;;
51366;SDS011;37458;49.428;8.646;2022-08-04T07:37:06;4.93;;;3.30;;
51366;SDS011;37458;49.428;8.646;2022-08-04T07:39:32;6.13;;;3.40;;
51366;SDS011;37458;49.428;8.646;2022-08-04T07:42:00;3.70;;;3.40;;
51366;SDS011;37458;49.428;8.646;2022-08-04T07:44:27;3.92;;;3.15;;
51366;SDS011;37458;49.428;8.646;2022-08-04T07:46:53;6.78;;;3.60;;
51366;SDS011;37458;49.428;8.646;2022-08-04T07:49:20;4.88;;;4.03;;
51366;SDS011;37458;49.428;8.646;2022-08-04T07:51:46;5.60;;;4.00;;
51366;SDS011;37458;49.428;8.646;2022-08-04T07:54:12;4.03;;;3.78;;
51366;SDS011;37458;49.428;8.646;2022-08-04T07:56:39;4.15;;;3.58;;
51366;SDS011;37458;49.428;8.646;2022-08-04T07:59:06;3.83;;;3.42;;
51366;SDS011;37458;49.428;8.646;2022-08-04T08:01:35;5.43;;;4.30;;
51366;SDS011;37458;49.428;8.646;2022-08-04T08:04:02;4.40;;;3.92;;
51366;SDS011;37458;49.428;8.646;2022-08-04T08:06:29;4.68;;;4.32;;
51366;SDS011;37458;49.428;8.646;2022-08-04T08:08:55;5.50;;;4.45;;
51366;SDS011;37458;49.428;8.646;2022-08-04T08:11:23;4.85;;;4.55;;
51366;SDS011;37458;49.428;8.646;2022-08-04T08:13:49;5.53;;;5.10;;
51366;SDS011;37458;49.428;8.646;2022-08-04T08:16:16;7.60;;;5.32;;
51366;SDS011;37458;49.428;8.646;2022-08-04T08:18:44;5.72;;;5.25;;
51366;SDS011;37458;49.428;8.646;2022-08-04T08:21:10;5.85;;;5.30;;
51366;SDS011;37458;49.428;8.646;2022-08-04T08:23:36;6.20;;;5.68;;
51366;SDS011;37458;49.428;8.646;2022-08-04T08:26:04;7.68;;;6.50;;
51366;SDS011;37458;49.428;8.646;2022-08-04T08:28:30;7.28;;;5.95;;
51366;SDS011;37458;49.428;8.646;2022-08-04T08:30:56;6.93;;;6.43;;
51366;SDS011;37458;49.428;8.646;2022-08-04T08:33:22;7.25;;;6.85;;
51366;SDS011;37458;49.428;8.646;2022-08-04T08:35:51;7.70;;;6.80;;
51366;SDS011;37458;49.428;8.646;2022-08-04T08:38:19;8.38;;;7.55;;
51366;SDS011;37458;49.428;8.646;2022-08-04T08:40:50;9.20;;;8.50;;
51366;SDS011;37458;49.428;8.646;2022-08-04T08:50:51;7.78;;;7.15;;
51366;SDS011;37458;49.428;8.646;2022-08-04T08:58:41;7.03;;;6.43;;
51366;SDS011;37458;49.428;8.646;2022-08-04T09:11:17;7.50;;;6.90;;
51366;SDS011;37458;49.428;8.646;2022-08-04T09:13:53;9.65;;;6.78;;
51366;SDS011;37458;49.428;8.646;2022-08-04T09:16:37;8.40;;;7.80;;
51366;SDS011;37458;49.428;8.646;2022-08-04T09:19:13;9.40;;;8.75;;
51366;SDS011;37458;49.428;8.646;2022-08-04T09:21:52;10.55;;;9.77;;
51366;SDS011;37458;49.428;8.646;2022-08-04T09:24:33;10.18;;;9.60;;
51366;SDS011;37458;49.428;8.646;2022-08-04T09:27:12;10.20;;;9.57;;
51366;SDS011;37458;49.428;8.646;2022-08-04T09:29:42;10.85;;;9.88;;
51366;SDS011;37458;49.428;8.646;2022-08-04T09:39:46;12.38;;;11.40;;
51366;SDS011;37458;49.428;8.646;2022-08-04T09:47:22;12.70;;;11.48;;
51366;SDS011;37458;49.428;8.646;2022-08-04T09:52:58;12.20;;;11.50;;
51366;SDS011;37458;49.428;8.646;2022-08-04T09:58:00;12.82;;;12.00;;
51366;SDS011;37458;49.428;8.646;2022-08-04T10:00:28;13.98;;;13.10;;
51366;SDS011;37458;49.428;8.646;2022-08-04T10:02:59;15.43;;;14.00;;
51366;SDS011;37458;49.428;8.646;2022-08-04T10:08:17;18.98;;;17.70;;
51366;SDS011;37458;49.428;8.646;2022-08-04T10:10:50;20.60;;;19.30;;
51366;SDS011;37458;49.428;8.646;2022-08-04T10:19:33;20.60;;;19.40;;
51366;SDS011;37458;49.428;8.646;2022-08-04T10:27:10;21.73;;;20.63;;
51366;SDS011;37458;49.428;8.646;2022-08-04T10:29:40;20.70;;;19.40;;
51366;SDS011;37458;49.428;8.646;2022-08-04T10:32:27;20.67;;;19.42;;
51366;SDS011;37458;49.428;8.646;2022-08-04T10:37:38;20.73;;;19.40;;
51366;SDS011;37458;49.428;8.646;2022-08-04T10:40:26;21.75;;;20.45;;
51366;SDS011;37458;49.428;8.646;2022-08-04T10:45:35;27.20;;;25.58;;
51366;SDS011;37458;49.428;8.646;2022-08-04T10:48:06;26.92;;;25.42;;
51366;SDS011;37458;49.428;8.646;2022-08-04T10:50:37;27.92;;;26.10;;
51366;SDS011;37458;49.428;8.646;2022-08-04T10:53:06;29.58;;;27.88;;
51366;SDS011;37458;49.428;8.646;2022-08-04T10:55:35;30.42;;;28.50;;
51366;SDS011;37458;49.428;8.646;2022-08-04T10:58:06;28.98;;;27.48;;
51366;SDS011;37458;49.428;8.646;2022-08-04T11:00:35;30.60;;;28.90;;
51366;SDS011;37458;49.428;8.646;2022-08-04T11:03:12;31.85;;;29.92;;
51366;SDS011;37458;49.428;8.646;2022-08-04T11:05:52;33.00;;;31.08;;
51366;SDS011;37458;49.428;8.646;2022-08-04T11:08:25;33.38;;;31.08;;
51366;SDS011;37458;49.428;8.646;2022-08-04T11:13:18;37.88;;;35.50;;
51366;SDS011;37458;49.428;8.646;2022-08-04T11:15:47;38.05;;;36.05;;
51366;SDS011;37458;49.428;8.646;2022-08-04T11:18:34;40.67;;;38.67;;
51366;SDS011;37458;49.428;8.646;2022-08-04T11:21:13;37.03;;;35.20;;
51366;SDS011;37458;49.428;8.646;2022-08-04T11:23:43;36.33;;;34.53;;
51366;SDS011;37458;49.428;8.646;2022-08-04T11:26:15;37.17;;;34.78;;
51366;SDS011;37458;49.428;8.646;2022-08-04T11:31:20;34.13;;;32.30;;
51366;SDS011;37458;49.428;8.646;2022-08-04T11:36:38;33.30;;;31.60;;
51366;SDS011;37458;49.428;8.646;2022-08-04T11:44:48;40.08;;;38.05;;
51366;SDS011;37458;49.428;8.646;2022-08-04T11:47:26;40.20;;;37.97;;
51366;SDS011;37458;49.428;8.646;2022-08-04T11:50:01;40.40;;;38.45;;
51366;SDS011;37458;49.428;8.646;2022-08-04T11:52:28;37.35;;;35.45;;
51366;SDS011;37458;49.428;8.646;2022-08-04T11:54:55;33.75;;;31.80;;
51366;SDS011;37458;49.428;8.646;2022-08-04T11:57:22;33.08;;;31.38;;
51366;SDS011;37458;49.428;8.646;2022-08-04T11:59:48;31.63;;;30.13;;
51366;SDS011;37458;49.428;8.646;2022-08-04T12:02:57;29.63;;;28.02;;
51366;SDS011;37458;49.428;8.646;2022-08-04T12:05:05;26.90;;;25.30;;
51366;SDS011;37458;49.428;8.646;2022-08-04T12:10:19;28.08;;;26.48;;
51366;SDS011;37458;49.428;8.646;2022-08-04T12:15:22;32.97;;;31.17;;
51366;SDS011;37458;49.428;8.646;2022-08-04T12:17:56;35.78;;;33.42;;
51366;SDS011;37458;49.428;8.646;2022-08-04T12:20:26;37.53;;;35.42;;
51366;SDS011;37458;49.428;8.646;2022-08-04T12:22:53;39.15;;;37.10;;
51366;SDS011;37458;49.428;8.646;2022-08-04T12:25:21;38.45;;;36.42;;
51366;SDS011;37458;49.428;8.646;2022-08-04T12:27:48;36.13;;;34.33;;
51366;SDS011;37458;49.428;8.646;2022-08-04T12:30:17;37.05;;;34.83;;
51366;SDS011;37458;49.428;8.646;2022-08-04T12:32:52;38.05;;;36.05;;
51366;SDS011;37458;49.428;8.646;2022-08-04T12:40:32;38.25;;;35.97;;
51366;SDS011;37458;49.428;8.646;2022-08-04T12:43:09;37.42;;;35.28;;
51366;SDS011;37458;49.428;8.646;2022-08-04T12:45:40;33.50;;;31.65;;
51366;SDS011;37458;49.428;8.646;2022-08-04T12:48:07;32.05;;;30.35;;
51366;SDS011;37458;49.428;8.646;2022-08-04T12:50:34;29.92;;;28.33;;
51366;SDS011;37458;49.428;8.646;2022-08-04T12:53:00;27.55;;;25.90;;
51366;SDS011;37458;49.428;8.646;2022-08-04T12:55:35;25.10;;;23.80;;
51366;SDS011;37458;49.428;8.646;2022-08-04T12:58:02;25.90;;;24.50;;
51366;SDS011;37458;49.428;8.646;2022-08-04T13:00:32;22.42;;;21.25;;
51366;SDS011;37458;49.428;8.646;2022-08-04T13:03:02;21.30;;;20.20;;
51366;SDS011;37458;49.428;8.646;2022-08-04T13:05:30;20.83;;;19.52;;
51366;SDS011;37458;49.428;8.646;2022-08-04T13:07:56;21.38;;;20.02;;
51366;SDS011;37458;49.428;8.646;2022-08-04T13:10:22;23.15;;;21.70;;
51366;SDS011;37458;49.428;8.646;2022-08-04T13:12:55;24.25;;;22.83;;
51366;SDS011;37458;49.428;8.646;2022-08-04T13:15:23;25.92;;;24.63;;
51366;SDS011;37458;49.428;8.646;2022-08-04T13:18:01;26.40;;;25.10;;
51366;SDS011;37458;49.428;8.646;2022-08-04T13:20:37;28.23;;;26.45;;
51366;SDS011;37458;49.428;8.646;2022-08-04T13:23:07;29.13;;;27.73;;
51366;SDS011;37458;49.428;8.646;2022-08-04T13:25:35;29.25;;;27.75;;
51366;SDS011;37458;49.428;8.646;2022-08-04T13:28:04;29.70;;;28.17;;
51366;SDS011;37458;49.428;8.646;2022-08-04T13:30:30;26.85;;;25.50;;
51366;SDS011;37458;49.428;8.646;2022-08-04T13:32:59;26.10;;;24.70;;
51366;SDS011;37458;49.428;8.646;2022-08-04T13:35:25;22.67;;;21.42;;
51366;SDS011;37458;49.428;8.646;2022-08-04T13:37:53;20.27;;;19.08;;
51366;SDS011;37458;49.428;8.646;2022-08-04T13:40:20;18.42;;;17.52;;
51366;SDS011;37458;49.428;8.646;2022-08-04T13:42:47;17.35;;;16.45;;
51366;SDS011;37458;49.428;8.646;2022-08-04T13:45:14;16.40;;;15.23;;
51366;SDS011;37458;49.428;8.646;2022-08-04T13:47:44;16.10;;;15.30;;
51366;SDS011;37458;49.428;8.646;2022-08-04T13:52:40;18.02;;;16.92;;
51366;SDS011;37458;49.428;8.646;2022-08-04T13:55:07;19.65;;;18.55;;
51366;SDS011;37458;49.428;8.646;2022-08-04T13:57:35;19.77;;;18.63;;
51366;SDS011;37458;49.428;8.646;2022-08-04T14:00:08;19.40;;;18.10;;
51366;SDS011;37458;49.428;8.646;2022-08-04T14:05:36;20.67;;;19.65;;
51366;SDS011;37458;49.428;8.646;2022-08-04T14:08:14;19.00;;;17.90;;
51366;SDS011;37458;49.428;8.646;2022-08-04T14:10:51;17.80;;;16.90;;
51366;SDS011;37458;49.428;8.646;2022-08-04T14:13:26;15.90;;;15.07;;
51366;SDS011;37458;49.428;8.646;2022-08-04T14:15:53;14.50;;;13.80;;
51366;SDS011;37458;49.428;8.646;2022-08-04T14:18:24;12.98;;;12.20;;
51366;SDS011;37458;49.428;8.646;2022-08-04T14:21:01;11.32;;;10.73;;
51366;SDS011;37458;49.428;8.646;2022-08-04T14:23:28;11.52;;;10.52;;
51366;SDS011;37458;49.428;8.646;2022-08-04T14:25:54;10.20;;;9.70;;
51366;SDS011;37458;49.428;8.646;2022-08-04T14:28:29;9.27;;;8.77;;
51366;SDS011;37458;49.428;8.646;2022-08-04T14:31:08;9.45;;;8.95;;
51366;SDS011;37458;49.428;8.646;2022-08-04T14:33:36;9.02;;;8.23;;
51366;SDS011;37458;49.428;8.646;2022-08-04T14:36:02;7.80;;;7.07;;
51366;SDS011;37458;49.428;8.646;2022-08-04T14:41:09;6.05;;;5.63;;
51366;SDS011;37458;49.428;8.646;2022-08-04T14:44:09;5.55;;;5.05;;
51366;SDS011;37458;49.428;8.646;2022-08-04T14:46:28;4.05;;;3.85;;
51366;SDS011;37458;49.428;8.646;2022-08-04T14:51:26;3.85;;;3.40;;
51366;SDS011;37458;49.428;8.646;2022-08-04T14:53:52;3.45;;;3.20;;
51366;SDS011;37458;49.428;8.646;2022-08-04T14:56:18;4.03;;;3.05;;
51366;SDS011;37458;49.428;8.646;2022-08-04T14:58:44;3.10;;;2.90;;
51366;SDS011;37458;49.428;8.646;2022-08-04T15:01:11;4.78;;;2.70;;
51366;SDS011;37458;49.428;8.646;2022-08-04T15:03:41;3.00;;;2.80;;
51366;SDS011;37458;49.428;8.646;2022-08-04T15:06:07;3.33;;;2.50;;
51366;SDS011;37458;49.428;8.646;2022-08-04T15:08:34;4.28;;;2.78;;
51366;SDS011;37458;49.428;8.646;2022-08-04T15:11:00;3.80;;;2.80;;
51366;SDS011;37458;49.428;8.646;2022-08-04T15:13:27;2.63;;;2.40;;
51366;SDS011;37458;49.428;8.646;2022-08-04T15:15:53;3.75;;;2.50;;
51366;SDS011;37458;49.428;8.646;2022-08-04T15:18:19;2.72;;;2.45;;
51366;SDS011;37458;49.428;8.646;2022-08-04T15:20:45;2.50;;;2.30;;
51366;SDS011;37458;49.428;8.646;2022-08-04T15:23:11;2.40;;;2.30;;
51366;SDS011;37458;49.428;8.646;2022-08-04T15:25:38;3.13;;;2.58;;
51366;SDS011;37458;49.428;8.646;2022-08-04T15:28:06;3.60;;;2.30;;
51366;SDS011;37458;49.428;8.646;2022-08-04T15:30:36;2.53;;;2.33;;
51366;SDS011;37458;49.428;8.646;2022-08-04T15:33:02;2.97;;;2.28;;
51366;SDS011;37458;49.428;8.646;2022-08-04T15:35:29;3.83;;;2.30;;
51366;SDS011;37458;49.428;8.646;2022-08-04T15:40:35;2.65;;;2.30;;
51366;SDS011;37458;49.428;8.646;2022-08-04T15:43:10;2.30;;;2.10;;
51366;SDS011;37458;49.428;8.646;2022-08-04T15:45:49;3.25;;;2.33;;
51366;SDS011;37458;49.428;8.646;2022-08-04T15:53:23;3.72;;;2.45;;
51366;SDS011;37458;49.428;8.646;2022-08-04T15:55:49;6.32;;;2.33;;
51366;SDS011;37458;49.428;8.646;2022-08-04T15:58:18;4.35;;;2.20;;
51366;SDS011;37458;49.428;8.646;2022-08-04T16:03:35;5.32;;;2.30;;
51366;SDS011;37458;49.428;8.646;2022-08-04T16:05:56;2.42;;;2.20;;
51366;SDS011;37458;49.428;8.646;2022-08-04T16:08:22;2.50;;;2.30;;
51366;SDS011;37458;49.428;8.646;2022-08-04T16:10:51;3.22;;;2.30;;
51366;SDS011;37458;49.428;8.646;2022-08-04T16:13:21;2.42;;;2.28;;
51366;SDS011;37458;49.428;8.646;2022-08-04T16:18:58;2.42;;;2.22;;
51366;SDS011;37458;49.428;8.646;2022-08-04T16:21:03;2.97;;;2.50;;
51366;SDS011;37458;49.428;8.646;2022-08-04T16:23:44;5.20;;;2.28;;
51366;SDS011;37458;49.428;8.646;2022-08-04T16:26:39;5.95;;;2.40;;
51366;SDS011;37458;49.428;8.646;2022-08-04T16:29:00;2.35;;;2.20;;
51366;SDS011;37458;49.428;8.646;2022-08-04T16:31:27;2.38;;;2.00;;
51366;SDS011;37458;49.428;8.646;2022-08-04T16:33:57;2.92;;;2.28;;
51366;SDS011;37458;49.428;8.646;2022-08-04T16:37:06;6.57;;;2.40;;
51366;SDS011;37458;49.428;8.646;2022-08-04T16:39:17;4.72;;;2.50;;
51366;SDS011;37458;49.428;8.646;2022-08-04T16:41:43;7.72;;;2.30;;
51366;SDS011;37458;49.428;8.646;2022-08-04T16:44:29;2.40;;;2.20;;
51366;SDS011;37458;49.428;8.646;2022-08-04T16:46:56;3.42;;;2.35;;
51366;SDS011;37458;49.428;8.646;2022-08-04T16:49:23;2.42;;;2.20;;
51366;SDS011;37458;49.428;8.646;2022-08-04T16:51:49;2.20;;;2.10;;
51366;SDS011;37458;49.428;8.646;2022-08-04T16:54:16;3.08;;;2.00;;
51366;SDS011;37458;49.428;8.646;2022-08-04T16:56:43;3.13;;;2.00;;
51366;SDS011;37458;49.428;8.646;2022-08-04T16:59:10;6.22;;;2.20;;
51366;SDS011;37458;49.428;8.646;2022-08-04T17:01:36;3.92;;;2.40;;
51366;SDS011;37458;49.428;8.646;2022-08-04T17:04:03;2.78;;;2.10;;
51366;SDS011;37458;49.428;8.646;2022-08-04T17:06:47;4.18;;;2.10;;
51366;SDS011;37458;49.428;8.646;2022-08-04T17:09:17;3.75;;;2.20;;
51366;SDS011;37458;49.428;8.646;2022-08-04T17:11:45;3.10;;;2.10;;
51366;SDS011;37458;49.428;8.646;2022-08-04T17:14:11;2.85;;;2.15;;
51366;SDS011;37458;49.428;8.646;2022-08-04T17:16:39;3.25;;;2.25;;
51366;SDS011;37458;49.428;8.646;2022-08-04T17:19:06;5.28;;;2.42;;
51366;SDS011;37458;49.428;8.646;2022-08-04T17:21:33;2.40;;;2.20;;
51366;SDS011;37458;49.428;8.646;2022-08-04T17:24:00;3.72;;;2.40;;
51366;SDS011;37458;49.428;8.646;2022-08-04T17:26:31;2.88;;;2.22;;
51366;SDS011;37458;49.428;8.646;2022-08-04T17:28:57;4.05;;;2.20;;
51366;SDS011;37458;49.428;8.646;2022-08-04T17:31:25;5.28;;;2.30;;
51366;SDS011;37458;49.428;8.646;2022-08-04T17:33:52;3.15;;;2.17;;
51366;SDS011;37458;49.428;8.646;2022-08-04T17:36:21;3.42;;;2.38;;
51366;SDS011;37458;49.428;8.646;2022-08-04T17:38:52;2.65;;;2.22;;
51366;SDS011;37458;49.428;8.646;2022-08-04T17:41:19;2.30;;;2.03;;
51366;SDS011;37458;49.428;8.646;2022-08-04T17:43:50;2.83;;;2.40;;
51366;SDS011;37458;49.428;8.646;2022-08-04T17:46:17;4.32;;;2.30;;
51366;SDS011;37458;49.428;8.646;2022-08-04T17:48:44;3.92;;;2.10;;
51366;SDS011;37458;49.428;8.646;2022-08-04T17:51:14;3.78;;;2.30;;
51366;SDS011;37458;49.428;8.646;2022-08-04T17:53:40;2.50;;;2.17;;
51366;SDS011;37458;49.428;8.646;2022-08-04T17:56:26;2.33;;;2.13;;
51366;SDS011;37458;49.428;8.646;2022-08-04T17:59:09;3.05;;;2.47;;
51366;SDS011;37458;49.428;8.646;2022-08-04T18:01:39;4.38;;;2.47;;
51366;SDS011;37458;49.428;8.646;2022-08-04T18:06:50;4.60;;;2.53;;
51366;SDS011;37458;49.428;8.646;2022-08-04T18:11:59;3.78;;;2.53;;
51366;SDS011;37458;49.428;8.646;2022-08-04T18:14:26;2.72;;;2.10;;
51366;SDS011;37458;49.428;8.646;2022-08-04T18:16:53;3.72;;;2.30;;
51366;SDS011;37458;49.428;8.646;2022-08-04T18:19:19;4.05;;;2.35;;
51366;SDS011;37458;49.428;8.646;2022-08-04T18:21:45;2.30;;;2.10;;
51366;SDS011;37458;49.428;8.646;2022-08-04T18:24:12;5.38;;;2.00;;
51366;SDS011;37458;49.428;8.646;2022-08-04T18:26:39;3.03;;;2.05;;
51366;SDS011;37458;49.428;8.646;2022-08-04T18:29:06;3.60;;;1.95;;
51366;SDS011;37458;49.428;8.646;2022-08-04T18:31:35;3.03;;;2.20;;
51366;SDS011;37458;49.428;8.646;2022-08-04T18:34:01;3.40;;;2.20;;
51366;SDS011;37458;49.428;8.646;2022-08-04T18:36:28;4.95;;;2.30;;
51366;SDS011;37458;49.428;8.646;2022-08-04T18:38:54;2.50;;;2.13;;
51366;SDS011;37458;49.428;8.646;2022-08-04T18:41:20;3.17;;;2.10;;
51366;SDS011;37458;49.428;8.646;2022-08-04T18:43:46;4.82;;;2.13;;
51366;SDS011;37458;49.428;8.646;2022-08-04T18:46:12;3.95;;;2.15;;
51366;SDS011;37458;49.428;8.646;2022-08-04T18:48:38;2.45;;;2.25;;
51366;SDS011;37458;49.428;8.646;2022-08-04T18:51:04;2.40;;;2.20;;
51366;SDS011;37458;49.428;8.646;2022-08-04T18:53:30;2.10;;;2.00;;